createdAt,value
2022-08-31T00:04:20.569Z,18.32
2022-08-31T00:09:22.241Z,18.28
2022-08-31T00:14:23.871Z,18.19
2022-08-31T00:19:26.224Z,18.18
2022-08-31T00:24:28.324Z,18.19
2022-08-31T00:29:30.086Z,18.21
2022-08-31T00:34:31.719Z,18.15
2022-08-31T00:39:33.423Z,18.18
2022-08-31T00:44:35.555Z,18.14
2022-08-31T00:49:51.445Z,18.12
2022-08-31T00:55:01.429Z,18.07
2022-08-31T01:00:09.159Z,18.12
2022-08-31T01:05:11.880Z,18.06
2022-08-31T01:10:15.692Z,18.08
2022-08-31T01:15:18.189Z,18.09
2022-08-31T01:20:25.698Z,18.06
2022-08-31T01:25:33.353Z,18.05
2022-08-31T01:30:36.994Z,17.99
2022-08-31T01:35:44.079Z,18.02
2022-08-31T01:40:51.844Z,17.97
2022-08-31T01:45:53.930Z,17.99
2022-08-31T01:50:55.747Z,17.95
2022-08-31T01:55:57.804Z,18.13
2022-08-31T02:01:00.588Z,17.93
2022-08-31T02:06:10.351Z,17.91
2022-08-31T02:11:12.210Z,17.98
2022-08-31T02:16:14.247Z,18.10
2022-08-31T02:21:15.998Z,17.94
2022-08-31T02:26:18.438Z,17.83
2022-08-31T02:31:21.090Z,17.81
2022-08-31T02:36:31.559Z,17.81
2022-08-31T02:41:36.612Z,17.68
2022-08-31T02:46:38.439Z,17.63
2022-08-31T02:51:58.731Z,17.61
2022-08-31T02:57:02.732Z,17.53
2022-08-31T03:02:08.530Z,17.55
2022-08-31T03:07:12.846Z,17.52
2022-08-31T03:12:14.879Z,17.50
2022-08-31T03:17:16.597Z,17.50
2022-08-31T03:22:19.041Z,17.51
2022-08-31T03:27:24.646Z,17.42
2022-08-31T03:32:31.106Z,17.41
2022-08-31T03:37:34.069Z,17.43
2022-08-31T03:42:37.221Z,17.38
2022-08-31T03:47:44.481Z,17.31
2022-08-31T03:52:47.839Z,17.28
2022-08-31T03:57:53.512Z,17.40
2022-08-31T04:03:00.143Z,17.25
2022-08-31T04:08:23.167Z,17.27
2022-08-31T04:14:02.852Z,17.17
2022-08-31T04:19:11.701Z,17.11
2022-08-31T04:24:22.741Z,17.07
2022-08-31T04:29:25.398Z,16.98
2022-08-31T04:34:28.077Z,16.96
2022-08-31T04:39:31.178Z,17.05
2022-08-31T04:44:34.675Z,16.99
2022-08-31T04:49:36.619Z,16.87
2022-08-31T04:54:38.374Z,16.89
2022-08-31T04:59:40.205Z,16.82
2022-08-31T05:05:01.073Z,16.97
2022-08-31T05:10:02.907Z,16.85
2022-08-31T05:15:05.132Z,16.83
2022-08-31T05:20:07.732Z,16.70
2022-08-31T05:25:09.700Z,16.69
2022-08-31T05:30:11.859Z,16.73
2022-08-31T05:35:16.959Z,16.82
2022-08-31T05:40:19.813Z,16.88
2022-08-31T05:45:22.251Z,16.89
2022-08-31T05:50:23.988Z,16.91
2022-08-31T05:55:25.791Z,16.95
2022-08-31T06:00:27.556Z,16.89
2022-08-31T06:05:43.929Z,17.00
2022-08-31T06:10:46.641Z,16.85
2022-08-31T06:15:48.490Z,17.24
2022-08-31T06:20:50.161Z,17.17
2022-08-31T06:25:52.152Z,17.64
2022-08-31T06:30:55.637Z,17.79
2022-08-31T06:35:58.498Z,17.76
2022-08-31T06:41:31.177Z,17.89
2022-08-31T06:46:56.728Z,17.91
2022-08-31T06:52:00.962Z,18.02
2022-08-31T06:57:04.301Z,18.16
2022-08-31T07:02:41.343Z,18.11
2022-08-31T07:07:43.597Z,17.98
2022-08-31T07:12:45.810Z,18.18
2022-08-31T07:17:49.906Z,18.58
2022-08-31T07:22:51.785Z,18.84
2022-08-31T07:28:05.345Z,18.88
2022-08-31T07:33:08.935Z,18.87
2022-08-31T07:38:34.092Z,18.73
2022-08-31T07:43:37.113Z,18.99
2022-08-31T07:48:41.263Z,18.85
2022-08-31T07:54:10.359Z,19.22
2022-08-31T07:59:35.157Z,18.90
2022-08-31T08:04:40.942Z,18.82
2022-08-31T08:10:14.444Z,18.94
2022-08-31T08:15:26.459Z,19.22
2022-08-31T08:20:49.646Z,19.47
2022-08-31T08:25:52.064Z,18.87
2022-08-31T08:31:01.520Z,18.85
2022-08-31T08:36:08.036Z,19.10
2022-08-31T08:41:20.060Z,19.74
2022-08-31T08:46:36.842Z,19.42
2022-08-31T08:51:39.296Z,19.11
2022-08-31T08:56:47.843Z,19.29
2022-08-31T09:02:02.113Z,20.08
2022-08-31T09:07:23.058Z,19.85
2022-08-31T09:12:49.048Z,19.72
2022-08-31T09:18:26.422Z,19.67
2022-08-31T09:23:41.435Z,19.64
2022-08-31T09:28:48.420Z,19.66
2022-08-31T09:33:51.211Z,20.08
2022-08-31T09:38:53.325Z,19.96
2022-08-31T09:44:15.050Z,20.02
2022-08-31T09:49:23.068Z,20.12
2022-08-31T09:54:47.068Z,20.74
2022-08-31T09:59:51.642Z,20.48
2022-08-31T10:04:56.790Z,21.13
2022-08-31T10:10:03.294Z,20.94
2022-08-31T10:15:35.097Z,20.24
2022-08-31T10:20:39.732Z,20.66
2022-08-31T10:25:48.167Z,21.21
2022-08-31T10:31:21.187Z,20.72
2022-08-31T10:36:33.225Z,20.76
2022-08-31T10:41:42.764Z,20.71
2022-08-31T10:46:45.550Z,21.21
2022-08-31T10:52:01.895Z,21.34
2022-08-31T10:57:06.211Z,21.04
2022-08-31T11:02:46.385Z,21.04
2022-08-31T11:07:58.879Z,21.31
2022-08-31T11:13:06.276Z,21.46
2022-08-31T11:18:19.287Z,21.24
2022-08-31T11:23:31.587Z,21.31
2022-08-31T11:28:52.023Z,21.48
2022-08-31T11:34:16.118Z,21.59
2022-08-31T11:39:31.146Z,21.55
2022-08-31T11:44:34.207Z,21.53
2022-08-31T11:49:38.132Z,22.11
2022-08-31T11:54:42.679Z,22.48
2022-08-31T11:59:46.917Z,22.15
2022-08-31T12:05:05.231Z,21.89
2022-08-31T12:10:06.890Z,22.16
2022-08-31T12:15:39.341Z,22.53
2022-08-31T12:21:33.350Z,22.68
2022-08-31T12:26:51.392Z,22.33
2022-08-31T12:32:20.044Z,22.40
2022-08-31T12:37:32.399Z,22.65
2022-08-31T12:42:38.440Z,22.26
2022-08-31T12:47:58.645Z,22.64
2022-08-31T12:53:44.434Z,22.95
2022-08-31T12:59:40.809Z,22.98
2022-08-31T13:04:48.222Z,23.15
2022-08-31T13:10:22.009Z,23.24
2022-08-31T13:15:42.331Z,23.58
2022-08-31T13:20:45.996Z,23.31
2022-08-31T13:26:00.007Z,23.45
2022-08-31T13:31:06.113Z,23.49
2022-08-31T13:36:16.254Z,23.33
2022-08-31T13:41:27.688Z,23.72
2022-08-31T13:46:42.845Z,23.72
2022-08-31T13:51:46.358Z,23.72
2022-08-31T13:57:01.845Z,23.74
2022-08-31T14:02:15.060Z,23.82
2022-08-31T14:07:40.935Z,23.83
2022-08-31T14:13:02.774Z,23.97
2022-08-31T14:18:25.974Z,23.99
2022-08-31T14:23:33.761Z,23.90
2022-08-31T14:28:43.141Z,23.92
2022-08-31T14:33:44.799Z,23.70
2022-08-31T14:38:48.249Z,23.85
2022-08-31T14:43:49.922Z,23.75
2022-08-31T14:48:51.755Z,23.91
2022-08-31T14:53:57.838Z,23.72
2022-08-31T14:59:02.967Z,23.64
2022-08-31T15:04:06.048Z,23.97
2022-08-31T15:09:08.460Z,24.07
2022-08-31T15:14:12.247Z,23.95
2022-08-31T15:19:15.466Z,23.93
2022-08-31T15:24:19.341Z,23.90
2022-08-31T15:29:24.919Z,23.64
2022-08-31T15:34:32.395Z,23.64
2022-08-31T15:39:37.069Z,23.61
2022-08-31T15:44:40.459Z,23.23
2022-08-31T15:49:48.511Z,23.29
2022-08-31T15:54:50.461Z,23.43
2022-08-31T15:59:52.612Z,23.31
2022-08-31T16:04:54.663Z,23.28
2022-08-31T16:09:56.655Z,23.15
2022-08-31T16:14:58.619Z,23.27
2022-08-31T16:20:01.920Z,23.26
2022-08-31T16:25:08.623Z,23.20
2022-08-31T16:30:12.139Z,23.03
2022-08-31T16:35:13.770Z,23.09
2022-08-31T16:40:16.313Z,23.00
2022-08-31T16:45:18.220Z,22.98
2022-08-31T16:50:19.937Z,22.92
2022-08-31T16:55:21.840Z,22.82
2022-08-31T17:00:28.942Z,22.93
2022-08-31T17:05:33.337Z,23.03
2022-08-31T17:10:35.147Z,22.82
2022-08-31T17:15:36.878Z,22.77
2022-08-31T17:20:42.259Z,22.49
2022-08-31T17:25:43.892Z,22.53
2022-08-31T17:30:46.773Z,22.60
2022-08-31T17:35:48.515Z,22.54
2022-08-31T17:40:50.336Z,22.32
2022-08-31T17:45:52.176Z,22.41
2022-08-31T17:50:57.001Z,22.24
2022-08-31T17:55:58.616Z,22.21
2022-08-31T18:01:01.144Z,22.13
2022-08-31T18:06:03.150Z,22.07
2022-08-31T18:11:07.491Z,21.61
2022-08-31T18:16:09.462Z,21.68
2022-08-31T18:21:12.246Z,21.64
2022-08-31T18:26:19.159Z,21.60
2022-08-31T18:31:32.070Z,21.43
2022-08-31T18:36:38.434Z,21.35
2022-08-31T18:42:00.501Z,21.17
2022-08-31T18:47:07.745Z,21.23
2022-08-31T18:52:19.548Z,20.81
2022-08-31T18:57:23.692Z,20.69
2022-08-31T19:02:27.778Z,20.83
2022-08-31T19:07:30.072Z,20.48
2022-08-31T19:12:31.755Z,20.81
2022-08-31T19:17:34.534Z,20.78
2022-08-31T19:22:36.282Z,20.74
2022-08-31T19:27:39.424Z,20.54
2022-08-31T19:32:41.542Z,20.71
2022-08-31T19:37:43.332Z,20.51
2022-08-31T19:43:41.832Z,20.61
2022-08-31T19:48:07.738Z,20.63
2022-08-31T19:53:13.509Z,20.44
2022-08-31T19:58:17.333Z,20.26
2022-08-31T20:03:19.356Z,20.49
2022-08-31T20:08:21.324Z,20.05
2022-08-31T20:13:24.601Z,20.08
2022-08-31T20:18:28.137Z,20.29
2022-08-31T20:23:30.272Z,20.07
2022-08-31T20:28:31.991Z,19.96
2022-08-31T20:33:37.565Z,19.66
2022-08-31T20:38:41.280Z,20.16
2022-08-31T20:43:44.690Z,19.72
2022-08-31T20:49:04.958Z,19.76
2022-08-31T20:54:06.638Z,19.89
2022-08-31T20:59:09.836Z,20.06
2022-08-31T21:04:11.872Z,19.58
2022-08-31T21:09:13.768Z,19.74
2022-08-31T21:14:18.343Z,19.57
2022-08-31T21:19:24.912Z,19.29
2022-08-31T21:24:26.856Z,19.87
2022-08-31T21:29:28.988Z,19.35
2022-08-31T21:34:30.786Z,19.31
2022-08-31T21:39:32.537Z,19.48
2022-08-31T21:44:34.427Z,19.48
2022-08-31T21:49:36.078Z,19.19
2022-08-31T21:54:48.039Z,19.19
2022-08-31T21:59:51.075Z,19.02
2022-08-31T22:04:52.712Z,19.17
2022-08-31T22:09:56.761Z,18.95
2022-08-31T22:14:58.968Z,18.96
2022-08-31T22:20:00.617Z,18.94
2022-08-31T22:25:03.367Z,19.12
2022-08-31T22:30:05.451Z,18.92
2022-08-31T22:35:08.073Z,19.11
2022-08-31T22:40:20.359Z,19.02
2022-08-31T22:45:23.815Z,19.01
2022-08-31T22:50:26.848Z,18.85
2022-08-31T22:55:28.516Z,18.88
2022-08-31T23:00:33.458Z,18.73
2022-08-31T23:05:37.074Z,18.68
2022-08-31T23:10:39.468Z,18.71
2022-08-31T23:15:41.674Z,18.68
2022-08-31T23:20:43.409Z,18.69
2022-08-31T23:25:45.170Z,18.55
2022-08-31T23:30:49.396Z,18.51
2022-08-31T23:35:52.787Z,18.50
2022-08-31T23:40:56.483Z,18.43
2022-08-31T23:46:01.801Z,18.35
2022-08-31T23:51:09.718Z,18.29
2022-08-31T23:56:12.714Z,18.28
